METAR Data
IDs: Format: Raw Decoded Include TAF

Data at: 2136 UTC 02 Aug 2021

ESNK 022120Z AUTO 34006KT 9999 // OVC076/// 12/04 Q1005